KJFK/JFK METAR and TAF weather

Enter ICAO airport designator
Station Type Date Time Source
KJFK METAR 2020/01/28 20:51 UTC NOAA

KJFK 282051Z 31015G21KT 10SM BKN044 05/M04 A2983 RMK AO2 SLP100 T00501039 53009 $


Station Type Date Time Source
KJFK Decoded METAR 2020/01/28 20:51 UTC NOAA

KENNEDY INTERNATIONAL AIRPORT , NY, United States (KJFK) 40-38N 073-46W 9M
Jan 28, 2020 - 03:51 PM EST / 2020.01.28 2051 UTC
Wind: from the NW (310 degrees) at 17 MPH (15 KT) gusting to 24 MPH (21 KT):0
Visibility: 10 mile(s):0
Sky conditions: mostly cloudy
Temperature: 41.0 F (5.0 C)
Dew Point: 25.0 F (-3.9 C)
Relative Humidity: 52%
Pressure (altimeter): 29.83 in. Hg (1010 hPa)
Pressure tendency: 0.03 inches (0.9 hPa) higher than three hours ago
ob: KJFK 282051Z 31015G21KT 10SM BKN044 05/M04 A2983 RMK AO2 SLP100 T00501039 53009
cycle: 21

Station Type Date Time Source
KJFK TAF 2020/01/28 20:14 UTC NOAA

TAF
AMD KJFK 282007Z 2820/2924 32013G20KT P6SM BKN050
FM282200 32012KT P6SM BKN040
FM290600 32010KT P6SM SCT050
FM291100 33011KT P6SM SKC

Example: see airport list